Time;durP1;ratioP1;P1;durP2;ratioP2;P2;SDS_P1;SDS_P2;PMS_P1;PMS_P2;Temp;Humidity;BMP_temperature;BMP_pressure;BME280_temperature;BME280_humidity;BME280_pressure;Samples;Min_cycle;Max_cycle;Signal;HPM_P1;HPM_P2
2022/11/01 00:00:36;;;;;;;;;;;;;;;12.60;75.06;100702.16;5071205;28;19919;-26
2022/11/01 00:03:01;;;;;;;;;;;;;;;12.56;75.06;100699.53;5072008;28;19913;-26
2022/11/01 00:05:27;;;;;;;;;;;;;;;12.56;74.98;100690.72;5071843;28;19916;-26
2022/11/01 00:07:52;;;;;;;;;;;;;;;12.53;74.94;100694.31;5080295;28;19919;-26
2022/11/01 00:10:18;;;;;;;;;;;;;;;12.52;74.95;100699.63;5078741;28;19917;-26
2022/11/01 00:12:44;;;;;;;;;;;;;;;12.51;75.14;100687.28;5071409;28;19936;-26
2022/11/01 00:15:09;;;;;;;;;;;;;;;12.48;74.92;100697.91;5072072;28;20387;-26
2022/11/01 00:17:34;;;;;;;;;;;;;;;12.45;75.05;100696.22;5070096;28;19920;-26
2022/11/01 00:20:00;;;;;;;;;;;;;;;12.41;75.17;100682.13;5071701;28;19912;-26
2022/11/01 00:22:25;;;;;;;;;;;;;;;12.41;74.87;100682.13;5072706;28;20003;-26
2022/11/01 00:24:50;;;;;;;;;;;;;;;12.40;74.92;100690.97;5087249;28;19962;-26
2022/11/01 00:27:15;;;;;;;;;;;;;;;12.39;74.83;100688.34;5074590;28;20316;-26
2022/11/01 00:29:40;;;;;;;;;;;;;;;12.34;74.87;100691.06;5070954;28;19955;-26
2022/11/01 00:32:06;;;;;;;;;;;;;;;12.33;75.18;100689.34;5073234;28;20391;-26
2022/11/01 00:34:31;;;;;;;;;;;;;;;12.32;75.10;100698.19;5075069;28;19919;-26
2022/11/01 00:36:56;;;;;;;;;;;;;;;12.29;74.98;100704.38;5092446;28;20044;-26
2022/11/01 00:39:21;;;;;;;;;;;;;;;12.27;75.06;100706.16;5095372;28;19912;-26
2022/11/01 00:41:47;;;;;;;;;;;;;;;12.26;75.19;100703.53;5094867;28;20361;-26
2022/11/01 00:44:12;;;;;;;;;;;;;;;12.24;74.95;100702.72;5085329;28;19917;-26
2022/11/01 00:46:37;;;;;;;;;;;;;;;12.21;75.00;100689.53;5074485;28;19927;-26
2022/11/01 00:49:02;;;;;;;;;;;;;;;12.20;75.29;100688.66;5075996;28;19919;-26
2022/11/01 00:51:28;;;;;;;;;;;;;;;12.18;75.28;100688.66;5074507;28;19913;-26
2022/11/01 00:53:53;;;;;;;;;;;;;;;12.16;75.30;100690.47;5074949;28;19920;-26
2022/11/01 00:56:18;;;;;;;;;;;;;;;12.15;74.99;100696.69;5074498;28;19913;-26
2022/11/01 00:58:43;;;;;;;;;;;;;;;12.15;75.04;100698.44;5074750;28;19916;-26
2022/11/01 01:01:09;;;;;;;;;;;;;;;12.12;75.34;100695.84;5074179;28;19920;-26
2022/11/01 01:03:34;;;;;;;;;;;;;;;12.08;75.68;100689.72;5056957;28;20003;-26
2022/11/01 01:05:59;;;;;;;;;;;;;;;12.06;75.64;100691.50;5074594;28;19924;-26
2022/11/01 01:08:25;;;;;;;;;;;;;;;12.04;75.67;100699.44;5074693;28;19912;-26
2022/11/01 01:10:50;;;;;;;;;;;;;;;12.02;75.66;100695.06;5073949;28;19913;-26
2022/11/01 01:13:15;;;;;;;;;;;;;;;12.03;75.54;100691.53;5074700;28;19917;-26
2022/11/01 01:15:41;;;;;;;;;;;;;;;12.03;75.67;100692.41;5091557;28;20373;-26
2022/11/01 01:18:06;;;;;;;;;;;;;;;12.00;76.04;100697.72;5093430;28;19920;-26
2022/11/01 01:20:31;;;;;;;;;;;;;;;12.00;75.71;100699.53;5094420;28;20034;-26
2022/11/01 01:22:56;;;;;;;;;;;;;;;11.98;76.11;100683.69;5094343;28;19912;-26
2022/11/01 01:25:22;;;;;;;;;;;;;;;11.99;76.14;100689.81;5094331;28;20026;-26
2022/11/01 01:27:48;;;;;;;;;;;;;;;11.98;76.12;100690.72;5076094;28;19997;-26
2022/11/01 01:30:13;;;;;;;;;;;;;;;11.98;75.92;100682.78;5093962;28;19912;-26
2022/11/01 01:32:39;;;;;;;;;;;;;;;11.97;76.37;100684.56;5080879;28;20047;-26
2022/11/01 01:35:04;;;;;;;;;;;;;;;11.97;76.12;100688.97;5072808;28;19920;-26
2022/11/01 01:37:29;;;;;;;;;;;;;;;11.97;76.39;100681.06;5056160;28;19912;-26
2022/11/01 01:39:55;;;;;;;;;;;;;;;11.97;76.21;100684.56;5073816;28;19913;-26
2022/11/01 01:42:26;;;;;;;;;;;;;;;11.98;76.20;100666.94;5073581;28;19923;-26
2022/11/01 01:44:52;;;;;;;;;;;;;;;11.97;76.16;100673.97;5078996;28;19916;-26
2022/11/01 01:47:17;;;;;;;;;;;;;;;11.98;76.43;100672.22;5074889;28;19920;-26
2022/11/01 01:49:42;;;;;;;;;;;;;;;11.98;76.41;100674.88;5094133;28;19912;-26
2022/11/01 01:52:08;;;;;;;;;;;;;;;11.97;76.62;100665.19;5093533;28;20289;-26
2022/11/01 01:54:33;;;;;;;;;;;;;;;11.96;76.73;100653.75;5093873;28;19919;-26
2022/11/01 01:56:58;;;;;;;;;;;;;;;11.97;76.82;100657.28;5093735;28;20028;-26
2022/11/01 01:59:23;;;;;;;;;;;;;;;11.96;76.95;100669.59;5091518;28;19912;-26
2022/11/01 02:01:49;;;;;;;;;;;;;;;11.97;77.00;100655.47;5055144;28;19918;-26
2022/11/01 02:04:17;;;;;;;;;;;;;;;11.98;76.87;100674.88;5055461;28;19916;-26
2022/11/01 02:06:42;;;;;;;;;;;;;;;11.96;77.34;100674.88;5071898;28;19923;-26
2022/11/01 02:09:07;;;;;;;;;;;;;;;11.97;77.11;100676.63;5073385;28;19913;-26
2022/11/01 02:11:33;;;;;;;;;;;;;;;11.97;77.51;100684.56;5071802;28;19912;-26
2022/11/01 02:13:58;;;;;;;;;;;;;;;11.96;77.29;100668.72;5061343;28;19916;-26
2022/11/01 02:16:42;;;;;;;;;;;;;;;11.97;77.28;100660.75;5074264;28;19912;-26
2022/11/01 02:19:27;;;;;;;;;;;;;;;11.98;77.62;100666.94;5093538;28;19965;-26
2022/11/01 02:22:04;;;;;;;;;;;;;;;11.98;77.29;100661.66;5061149;28;20151;-26
2022/11/01 02:24:35;;;;;;;;;;;;;;;11.98;77.49;100659.00;5074869;28;19912;-26
2022/11/01 02:27:04;;;;;;;;;;;;;;;11.97;77.49;100655.47;5093180;28;19923;-26
2022/11/01 02:29:38;;;;;;;;;;;;;;;11.98;77.56;100640.50;5073887;28;19916;-26
2022/11/01 02:32:15;;;;;;;;;;;;;;;11.97;77.23;100634.34;5091558;28;19923;-26
2022/11/01 02:34:42;;;;;;;;;;;;;;;11.98;77.30;100645.78;5092975;28;19912;-26
2022/11/01 02:37:15;;;;;;;;;;;;;;;11.97;77.67;100625.56;5092825;28;19920;-26
2022/11/01 02:39:43;;;;;;;;;;;;;;;11.97;77.65;100614.97;5091676;28;19919;-26
2022/11/01 02:42:09;;;;;;;;;;;;;;;11.98;77.68;100643.16;5085138;28;19916;-26
2022/11/01 02:44:36;;;;;;;;;;;;;;;11.97;77.37;100649.34;5077727;28;20292;-26
2022/11/01 02:47:01;;;;;;;;;;;;;;;12.00;77.36;100651.94;5092226;28;20292;-26
2022/11/01 02:49:32;;;;;;;;;;;;;;;11.98;77.35;100640.50;5074593;28;19916;-27
2022/11/01 02:51:57;;;;;;;;;;;;;;;11.98;77.63;100629.94;5092431;28;19912;-26
2022/11/01 02:54:33;;;;;;;;;;;;;;;11.97;77.54;100633.47;5074679;28;19995;-27
2022/11/01 02:57:25;;;;;;;;;;;;;;;11.97;77.63;100628.19;5091527;28;20152;-26
2022/11/01 02:59:50;;;;;;;;;;;;;;;11.98;77.32;100640.50;5091147;28;19912;-26
2022/11/01 03:02:16;;;;;;;;;;;;;;;11.98;77.46;100627.28;5092333;28;19968;-26
2022/11/01 03:04:41;;;;;;;;;;;;;;;11.98;77.47;100640.50;5092637;28;20010;-26
2022/11/01 03:07:06;;;;;;;;;;;;;;;11.98;77.24;100635.22;5090839;28;20008;-26
2022/11/01 03:09:32;;;;;;;;;;;;;;;11.96;77.47;100632.59;5089484;28;20001;-26
2022/11/01 03:12:01;;;;;;;;;;;;;;;11.96;77.55;100631.72;5071922;28;19912;-26
2022/11/01 03:14:29;;;;;;;;;;;;;;;11.97;77.64;100628.19;5071541;28;19923;-26
2022/11/01 03:17:09;;;;;;;;;;;;;;;11.97;77.37;100625.56;5071569;28;19917;-26
2022/11/01 03:19:37;;;;;;;;;;;;;;;11.97;77.43;100634.34;5072162;28;19935;-26
2022/11/01 03:22:05;;;;;;;;;;;;;;;11.97;77.28;100638.78;5053813;28;19912;-27
2022/11/01 03:24:32;;;;;;;;;;;;;;;11.97;77.20;100633.47;5081466;28;19916;-26
2022/11/01 03:26:59;;;;;;;;;;;;;;;11.96;77.05;100642.28;5091858;28;19951;-27
2022/11/01 03:29:24;;;;;;;;;;;;;;;11.97;77.03;100628.19;5074043;28;19918;-26
2022/11/01 03:31:50;;;;;;;;;;;;;;;11.95;77.00;100630.84;5090581;28;19912;-26
2022/11/01 03:34:16;;;;;;;;;;;;;;;11.95;76.96;100620.28;5091242;28;19999;-26
2022/11/01 03:36:44;;;;;;;;;;;;;;;11.93;77.10;100622.94;5090807;28;19951;-26
2022/11/01 03:39:18;;;;;;;;;;;;;;;11.92;77.13;100615.94;5059408;28;20329;-26
2022/11/01 03:41:44;;;;;;;;;;;;;;;11.93;76.93;100622.06;5070362;28;20281;-26
2022/11/01 03:44:10;;;;;;;;;;;;;;;11.92;77.19;100625.63;5072897;28;20278;-26
2022/11/01 03:46:36;;;;;;;;;;;;;;;11.90;77.26;100609.78;5069938;28;19999;-26
2022/11/01 03:49:01;;;;;;;;;;;;;;;11.90;77.21;100630.91;5070444;28;20361;-26
2022/11/01 03:51:26;;;;;;;;;;;;;;;11.88;77.19;100635.38;5070073;28;19917;-26
2022/11/01 03:53:51;;;;;;;;;;;;;;;11.88;77.12;100630.09;5091834;28;19912;-26
2022/11/01 03:56:17;;;;;;;;;;;;;;;11.87;77.37;100638.88;5080179;28;19967;-26
2022/11/01 03:58:45;;;;;;;;;;;;;;;11.87;77.01;100644.19;5071886;28;19964;-26
2022/11/01 04:01:11;;;;;;;;;;;;;;;11.87;77.13;100665.31;5071349;28;19936;-26
2022/11/01 04:03:36;;;;;;;;;;;;;;;11.87;76.93;100664.47;5071716;28;20254;-26
2022/11/01 04:06:02;;;;;;;;;;;;;;;11.87;77.19;100659.19;5069980;28;19923;-26
2022/11/01 04:08:27;;;;;;;;;;;;;;;11.88;77.03;100671.50;5075650;28;19962;-26
2022/11/01 04:10:52;;;;;;;;;;;;;;;11.85;77.05;100667.13;5072522;28;20349;-26
2022/11/01 04:13:17;;;;;;;;;;;;;;;11.84;77.32;100670.63;5095855;28;19916;-26
2022/11/01 04:21:13;;;;;;;;;;;;;;;11.83;77.21;100666.25;5095071;28;19919;-26
2022/11/01 04:23:39;;;;;;;;;;;;;;;11.83;77.37;100658.34;5095458;28;19912;-26
2022/11/01 04:26:04;;;;;;;;;;;;;;;11.81;76.94;100654.84;5079019;28;19927;-27
2022/11/01 04:28:29;;;;;;;;;;;;;;;11.82;76.98;100664.53;5075111;28;19913;-26
2022/11/01 04:30:55;;;;;;;;;;;;;;;11.79;77.05;100667.19;5065800;28;19916;-26
2022/11/01 04:33:20;;;;;;;;;;;;;;;11.77;77.03;100651.38;5073342;28;19917;-26
2022/11/01 04:35:46;;;;;;;;;;;;;;;11.77;77.19;100622.31;5075225;28;20024;-26
2022/11/01 04:38:11;;;;;;;;;;;;;;;11.78;77.18;100636.41;5075130;28;19940;-26
2022/11/01 04:40:36;;;;;;;;;;;;;;;11.78;77.18;100628.47;5087356;28;20002;-26
2022/11/01 04:43:02;;;;;;;;;;;;;;;11.78;77.36;100615.25;5073125;28;19955;-26
2022/11/01 04:45:27;;;;;;;;;;;;;;;11.76;77.25;100625.84;5056953;28;20384;-26
2022/11/01 04:48:02;;;;;;;;;;;;;;;11.76;77.49;100604.72;5074822;28;19919;-26
2022/11/01 04:50:27;;;;;;;;;;;;;;;11.77;77.12;100589.75;5074848;28;20297;-26
2022/11/01 04:52:52;;;;;;;;;;;;;;;11.76;77.43;100609.13;5075006;28;19912;-26
2022/11/01 04:55:17;;;;;;;;;;;;;;;11.75;77.21;100588.88;5076539;28;19916;-26
2022/11/01 04:57:43;;;;;;;;;;;;;;;11.75;77.24;100600.34;5075449;28;19916;-26
2022/11/01 05:00:12;;;;;;;;;;;;;;;11.74;77.50;100614.41;5074456;28;20184;-26
2022/11/01 05:02:38;;;;;;;;;;;;;;;11.73;77.85;100662.88;5074484;28;19913;-26
2022/11/01 05:05:04;;;;;;;;;;;;;;;11.73;77.87;100633.81;5074451;28;20328;-26
2022/11/01 05:07:29;;;;;;;;;;;;;;;11.74;77.79;100642.63;5074501;28;20391;-26
2022/11/01 05:09:54;;;;;;;;;;;;;;;11.73;77.42;100609.16;5074456;28;19912;-26
2022/11/01 05:12:19;;;;;;;;;;;;;;;11.74;77.65;100600.34;5075151;28;19999;-27
2022/11/01 05:14:44;;;;;;;;;;;;;;;11.73;77.37;100614.44;5074447;28;20057;-27
2022/11/01 05:17:10;;;;;;;;;;;;;;;11.72;77.40;100586.28;5074758;28;20025;-26
2022/11/01 05:19:35;;;;;;;;;;;;;;;11.72;77.46;100634.72;5071171;28;19940;-26
2022/11/01 05:22:01;;;;;;;;;;;;;;;11.71;77.29;100648.84;5073889;28;20293;-26
2022/11/01 05:24:26;;;;;;;;;;;;;;;11.69;77.23;100629.47;5074324;28;19917;-26
2022/11/01 05:26:51;;;;;;;;;;;;;;;11.70;77.25;100630.34;5073994;28;20281;-26
2022/11/01 05:29:18;;;;;;;;;;;;;;;11.70;77.32;100654.13;5084700;28;20198;-26
2022/11/01 05:31:43;;;;;;;;;;;;;;;11.70;77.32;100662.06;5073756;28;19987;-26
2022/11/01 05:34:08;;;;;;;;;;;;;;;11.67;77.52;100632.13;5073832;28;20297;-26
2022/11/01 05:36:34;;;;;;;;;;;;;;;11.65;77.20;100628.66;5074637;28;20391;-26
2022/11/01 05:38:59;;;;;;;;;;;;;;;11.67;77.51;100615.41;5073961;28;20357;-26
2022/11/01 05:41:24;;;;;;;;;;;;;;;11.67;77.24;100624.22;5055339;28;19951;-26
2022/11/01 05:43:49;;;;;;;;;;;;;;;11.66;77.27;100590.78;5074146;28;20023;-26
2022/11/01 05:46:15;;;;;;;;;;;;;;;11.66;77.62;100618.94;5091065;28;19920;-27
2022/11/01 05:48:40;;;;;;;;;;;;;;;11.65;77.37;100655.06;5093856;28;19912;-26
2022/11/01 05:51:05;;;;;;;;;;;;;;;11.64;77.68;100657.75;5092431;28;19912;-26
2022/11/01 05:53:31;;;;;;;;;;;;;;;11.63;77.71;100654.22;5075784;28;20395;-26
2022/11/01 05:55:56;;;;;;;;;;;;;;;11.63;77.36;100641.00;5093809;28;20018;-26
2022/11/01 05:58:21;;;;;;;;;;;;;;;11.63;77.58;100646.28;5093771;28;19955;-26
2022/11/01 06:00:47;;;;;;;;;;;;;;;11.63;77.38;100662.13;5092986;28;20023;-27
2022/11/01 06:03:12;;;;;;;;;;;;;;;11.62;77.38;100654.22;5090634;28;20250;-26
2022/11/01 06:05:38;;;;;;;;;;;;;;;11.62;77.72;100644.53;5073374;28;19916;-26
2022/11/01 06:08:03;;;;;;;;;;;;;;;11.61;77.42;100641.94;5073537;28;19912;-27
2022/11/01 06:10:28;;;;;;;;;;;;;;;11.60;77.60;100656.88;5073034;28;19919;-27
2022/11/01 06:12:54;;;;;;;;;;;;;;;11.60;77.53;100651.59;5073767;28;19916;-27
2022/11/01 06:15:19;;;;;;;;;;;;;;;11.60;77.36;100663.97;5072862;28;20331;-27
2022/11/01 06:17:44;;;;;;;;;;;;;;;11.60;77.72;100659.53;5085421;28;19924;-26
2022/11/01 06:20:10;;;;;;;;;;;;;;;11.60;77.37;100671.88;5072228;28;20023;-27
2022/11/01 06:22:36;;;;;;;;;;;;;;;11.61;77.49;100710.59;5072234;28;19913;-26
2022/11/01 06:25:01;;;;;;;;;;;;;;;11.59;77.69;100702.69;5074534;28;20404;-27
2022/11/01 06:27:26;;;;;;;;;;;;;;;11.59;77.40;100705.34;5093036;28;19924;-26
2022/11/01 06:29:52;;;;;;;;;;;;;;;11.59;77.67;100718.56;5087569;28;19917;-27
2022/11/01 06:32:17;;;;;;;;;;;;;;;11.59;77.61;100715.91;5081590;28;19916;-27
2022/11/01 06:34:42;;;;;;;;;;;;;;;11.60;77.33;100722.06;5083267;28;19924;-27
2022/11/01 06:37:07;;;;;;;;;;;;;;;11.59;77.44;100726.47;5072681;28;19941;-27
2022/11/01 06:39:33;;;;;;;;;;;;;;;11.59;77.74;100726.47;5072719;28;19913;-27
2022/11/01 06:41:58;;;;;;;;;;;;;;;11.59;77.64;100723.84;5072484;28;19995;-27
2022/11/01 06:44:23;;;;;;;;;;;;;;;11.59;77.42;100717.66;5090014;28;20261;-26
2022/11/01 06:46:48;;;;;;;;;;;;;;;11.59;77.65;100725.59;5092700;28;19916;-27
2022/11/01 06:49:14;;;;;;;;;;;;;;;11.59;77.50;100722.94;5092131;28;19955;-27
2022/11/01 06:51:40;;;;;;;;;;;;;;;11.60;77.57;100730.84;5092477;28;19962;-27
2022/11/01 06:54:05;;;;;;;;;;;;;;;11.60;77.75;100746.69;5057165;28;19916;-26
2022/11/01 06:56:30;;;;;;;;;;;;;;;11.59;78.08;100741.44;5074239;28;20286;-27
2022/11/01 06:58:55;;;;;;;;;;;;;;;11.59;78.09;100723.84;5092248;28;19912;-27
2022/11/01 07:01:21;;;;;;;;;;;;;;;11.60;78.84;100724.72;5074292;28;19916;-27
2022/11/01 07:03:52;;;;;;;;;;;;;;;11.61;78.70;100715.88;5092294;28;20079;-27
2022/11/01 07:06:17;;;;;;;;;;;;;;;11.62;79.07;100739.66;5091379;28;20412;-27
2022/11/01 07:08:42;;;;;;;;;;;;;;;11.64;78.90;100756.34;5092667;28;19912;-27
2022/11/01 07:11:08;;;;;;;;;;;;;;;11.67;78.77;100748.38;5072090;28;19916;-27
2022/11/01 07:13:35;;;;;;;;;;;;;;;11.67;79.30;100751.03;5080988;28;19916;-26
2022/11/01 07:16:04;;;;;;;;;;;;;;;11.70;79.08;100750.09;5091815;28;20326;-27
2022/11/01 07:18:30;;;;;;;;;;;;;;;11.71;79.48;100748.34;5074068;28;20018;-27
2022/11/01 07:20:56;;;;;;;;;;;;;;;11.73;79.45;100763.28;5092405;28;20293;-27
2022/11/01 07:23:21;;;;;;;;;;;;;;;11.74;79.00;100758.88;5091501;28;19946;-26
2022/11/01 07:25:50;;;;;;;;;;;;;;;11.76;79.16;100757.06;5092214;28;20014;-27
2022/11/01 07:28:15;;;;;;;;;;;;;;;11.78;79.23;100744.72;5091542;28;19916;-27
2022/11/01 07:30:40;;;;;;;;;;;;;;;11.80;79.23;100737.66;5073390;28;19912;-26
2022/11/01 07:33:06;;;;;;;;;;;;;;;11.82;79.08;100735.88;5092391;28;20430;-26
2022/11/01 07:35:31;;;;;;;;;;;;;;;11.84;79.05;100749.91;5092443;28;19912;-27
2022/11/01 07:37:57;;;;;;;;;;;;;;;11.85;79.07;100749.03;5092052;28;20376;-27
2022/11/01 07:40:26;;;;;;;;;;;;;;;11.87;78.67;100764.88;5092211;28;19958;-27
2022/11/01 07:42:51;;;;;;;;;;;;;;;11.88;78.50;100751.66;5071350;28;19961;-27
2022/11/01 07:45:16;;;;;;;;;;;;;;;11.89;78.51;100745.47;5053869;28;20014;-26
2022/11/01 07:47:42;;;;;;;;;;;;;;;11.91;78.70;100740.16;5071883;28;19923;-26
2022/11/01 07:50:07;;;;;;;;;;;;;;;11.92;78.50;100731.34;5053540;28;19999;-26
2022/11/01 07:52:32;;;;;;;;;;;;;;;11.93;78.47;100736.59;5071420;28;19912;-27
2022/11/01 07:54:58;;;;;;;;;;;;;;;11.94;78.55;100751.56;5074512;28;19924;-27
2022/11/01 07:57:23;;;;;;;;;;;;;;;11.95;78.33;100749.78;5091852;28;19912;-27
2022/11/01 07:59:48;;;;;;;;;;;;;;;11.97;78.59;100741.84;5078406;28;19927;-27
2022/11/01 08:02:13;;;;;;;;;;;;;;;11.99;78.44;100745.31;5091450;28;20297;-27
2022/11/01 08:04:39;;;;;;;;;;;;;;;11.99;78.45;100753.25;5091939;28;19955;-27
2022/11/01 08:07:04;;;;;;;;;;;;;;;12.01;78.46;100759.41;5092080;28;19969;-27
2022/11/01 08:09:29;;;;;;;;;;;;;;;12.03;78.30;100765.53;5073516;28;20435;-27
2022/11/01 08:11:54;;;;;;;;;;;;;;;12.04;78.38;100764.66;5091450;28;19912;-27
2022/11/01 08:14:20;;;;;;;;;;;;;;;12.06;78.55;100760.25;5087102;28;20015;-27
2022/11/01 08:16:49;;;;;;;;;;;;;;;12.07;78.29;100756.69;5090574;28;19919;-27
2022/11/01 08:19:14;;;;;;;;;;;;;;;12.08;78.54;100750.53;5091989;28;19912;-27
2022/11/01 08:21:39;;;;;;;;;;;;;;;12.11;78.62;100753.16;5091430;28;20014;-27
2022/11/01 08:24:05;;;;;;;;;;;;;;;12.12;78.39;100754.00;5091843;28;19912;-27
2022/11/01 08:26:30;;;;;;;;;;;;;;;12.13;78.36;100761.91;5091507;28;20296;-27
2022/11/01 08:28:55;;;;;;;;;;;;;;;12.16;78.39;100769.81;5074016;28;19917;-27
2022/11/01 08:31:21;;;;;;;;;;;;;;;12.17;78.51;100779.47;5071029;28;19916;-27
2022/11/01 08:33:46;;;;;;;;;;;;;;;12.19;78.32;100782.97;5071458;28;20019;-27
2022/11/01 08:36:11;;;;;;;;;;;;;;;12.22;78.49;100771.50;5070972;28;19952;-27
2022/11/01 08:38:36;;;;;;;;;;;;;;;12.24;78.90;100792.63;5080351;28;20381;-27
2022/11/01 08:41:02;;;;;;;;;;;;;;;12.26;79.25;100793.47;5090021;28;20413;-27
2022/11/01 08:43:27;;;;;;;;;;;;;;;12.29;79.41;100789.00;5091479;28;19916;-27
2022/11/01 08:45:52;;;;;;;;;;;;;;;12.32;79.20;100790.75;5091209;28;20454;-27
2022/11/01 08:48:18;;;;;;;;;;;;;;;12.35;79.65;100793.34;5091436;28;19912;-27
2022/11/01 08:50:43;;;;;;;;;;;;;;;12.40;79.80;100803.84;5091002;28;19919;-27
2022/11/01 08:53:10;;;;;;;;;;;;;;;12.44;80.85;100800.28;5069631;28;20019;-27
2022/11/01 08:55:35;;;;;;;;;;;;;;;12.48;80.65;100803.72;5074771;28;19912;-27
2022/11/01 08:58:01;;;;;;;;;;;;;;;12.51;80.08;100808.97;5074871;28;19958;-27
2022/11/01 09:00:26;;;;;;;;;;;;;;;12.54;80.03;100811.59;5074357;28;20420;-27
2022/11/01 09:02:51;;;;;;;;;;;;;;;12.56;79.82;100808.00;5074509;28;20033;-27
2022/11/01 09:05:17;;;;;;;;;;;;;;;12.60;79.96;100800.91;5075486;28;19916;-27
2022/11/01 09:07:42;;;;;;;;;;;;;;;12.63;80.05;100802.59;5093580;28;19928;-27
2022/11/01 09:10:08;;;;;;;;;;;;;;;12.66;80.01;100799.91;5092545;28;19959;-27
2022/11/01 09:12:33;;;;;;;;;;;;;;;12.70;80.31;100799.84;5094148;28;20007;-27
2022/11/01 09:14:58;;;;;;;;;;;;;;;12.73;79.74;100809.50;5094364;28;20003;-27
2022/11/01 09:17:24;;;;;;;;;;;;;;;12.80;80.76;100805.00;5075999;28;19916;-27
2022/11/01 09:19:49;;;;;;;;;;;;;;;12.84;81.39;100806.72;5093931;28;20128;-27
2022/11/01 09:22:14;;;;;;;;;;;;;;;12.90;83.22;100811.88;5094277;28;19912;-27
2022/11/01 09:24:39;;;;;;;;;;;;;;;12.94;83.85;100818.88;5076248;28;20329;-27
2022/11/01 09:27:08;;;;;;;;;;;;;;;12.99;83.03;100815.28;5094581;28;20350;-27
2022/11/01 09:29:33;;;;;;;;;;;;;;;13.05;83.99;100825.78;5091092;28;20007;-27
2022/11/01 09:31:58;;;;;;;;;;;;;;;13.09;84.67;100833.66;5091920;28;20019;-27
2022/11/01 09:34:24;;;;;;;;;;;;;;;13.14;84.59;100825.59;5094283;28;19918;-27
2022/11/01 09:36:49;;;;;;;;;;;;;;;13.19;84.29;100839.66;5079284;28;19916;-27
2022/11/01 09:39:16;;;;;;;;;;;;;;;13.24;83.94;100830.75;5073804;28;19913;-27
2022/11/01 09:41:46;;;;;;;;;;;;;;;13.28;83.24;100835.97;5073665;28;19966;-27
2022/11/01 09:44:31;;;;;;;;;;;;;;;13.32;82.60;100835.03;5073762;28;20294;-27
2022/11/01 09:46:57;;;;;;;;;;;;;;;13.36;82.09;100830.53;5073241;28;20297;-27
2022/11/01 09:49:24;;;;;;;;;;;;;;;13.39;81.55;100835.78;5055786;28;20397;-27
2022/11/01 09:51:49;;;;;;;;;;;;;;;13.43;81.26;100833.94;5077535;28;19912;-27
2022/11/01 09:54:15;;;;;;;;;;;;;;;13.47;81.88;100841.78;5091128;28;19922;-27
2022/11/01 09:56:41;;;;;;;;;;;;;;;13.51;82.42;100850.63;5093294;28;19912;-27
2022/11/01 09:59:18;;;;;;;;;;;;;;;13.54;82.79;100839.06;5093752;28;19935;-27
2022/11/01 10:02:02;;;;;;;;;;;;;;;13.59;83.29;100858.41;5058672;28;20373;-27
2022/11/01 10:04:33;;;;;;;;;;;;;;;13.64;84.00;100859.19;5093258;28;19958;-27
2022/11/01 10:07:01;;;;;;;;;;;;;;;13.67;84.21;100856.47;5086284;28;19932;-27
2022/11/01 10:09:33;;;;;;;;;;;;;;;13.71;84.01;100852.00;5073347;28;20001;-27
2022/11/01 10:12:05;;;;;;;;;;;;;;;13.75;83.95;100866.06;5083413;28;19912;-27
2022/11/01 10:14:39;;;;;;;;;;;;;;;13.78;84.13;100873.97;5072938;28;19974;-27
2022/11/01 10:17:10;;;;;;;;;;;;;;;13.81;83.16;100877.41;5092678;28;20167;-27
2022/11/01 10:19:35;;;;;;;;;;;;;;;13.84;82.62;100882.66;5093615;28;19912;-27
2022/11/01 10:22:03;;;;;;;;;;;;;;;13.89;82.59;100887.88;5093047;28;19935;-27
2022/11/01 10:24:31;;;;;;;;;;;;;;;13.92;83.16;100893.13;5093231;28;19912;-29
2022/11/01 10:27:04;;;;;;;;;;;;;;;13.95;83.58;100876.28;5064865;28;19935;-27
2022/11/01 10:29:47;;;;;;;;;;;;;;;14.00;83.56;100886.81;5091680;28;19916;-27
2022/11/01 10:32:31;;;;;;;;;;;;;;;14.03;83.13;100889.38;5095922;28;19961;-27
2022/11/01 10:34:57;;;;;;;;;;;;;;;14.07;83.03;100907.84;5059628;28;19913;-27
2022/11/01 10:37:24;;;;;;;;;;;;;;;14.09;82.92;100894.56;5072578;28;19912;-27
2022/11/01 10:39:55;;;;;;;;;;;;;;;14.12;82.34;100905.13;5054881;28;19997;-27
2022/11/01 10:42:20;;;;;;;;;;;;;;;14.15;81.96;100891.78;5076314;28;19916;-27
2022/11/01 10:44:47;;;;;;;;;;;;;;;14.18;81.85;100890.84;5091950;28;19927;-27
2022/11/01 10:47:16;;;;;;;;;;;;;;;14.20;81.63;100895.22;5090274;28;19926;-27
2022/11/01 10:49:44;;;;;;;;;;;;;;;14.22;81.51;100885.47;5093154;28;19927;-27
2022/11/01 10:52:10;;;;;;;;;;;;;;;14.26;81.46;100880.94;5088412;28;19920;-27
2022/11/01 10:54:36;;;;;;;;;;;;;;;14.29;81.41;100880.88;5074063;28;20335;-27
2022/11/01 10:57:03;;;;;;;;;;;;;;;14.32;81.14;100882.59;5091391;28;19916;-27
2022/11/01 10:59:31;;;;;;;;;;;;;;;14.34;80.96;100889.59;5074501;28;19916;-27
2022/11/01 11:01:56;;;;;;;;;;;;;;;14.37;81.10;100893.97;5074263;28;19919;-27
2022/11/01 11:04:22;;;;;;;;;;;;;;;14.41;81.07;100886.84;5074596;28;19912;-27
2022/11/01 11:06:48;;;;;;;;;;;;;;;14.44;81.14;100884.13;5068668;28;19957;-27
2022/11/01 11:09:17;;;;;;;;;;;;;;;14.48;81.84;100884.00;5085184;28;20285;-27
2022/11/01 11:11:44;;;;;;;;;;;;;;;14.53;82.09;100883.03;5091985;28;20021;-27
2022/11/01 11:14:09;;;;;;;;;;;;;;;14.55;82.54;100882.09;5088932;28;19923;-27
2022/11/01 11:16:39;;;;;;;;;;;;;;;14.56;82.21;100875.88;5091474;28;19916;-27
2022/11/01 11:19:07;;;;;;;;;;;;;;;14.59;82.16;100878.47;5088678;28;19916;-27
2022/11/01 11:21:33;;;;;;;;;;;;;;;14.63;82.37;100881.91;5091395;28;20450;-27
2022/11/01 11:23:59;;;;;;;;;;;;;;;14.67;82.85;100883.59;5092502;28;19912;-27
2022/11/01 11:26:24;;;;;;;;;;;;;;;14.72;82.96;100872.88;5092271;28;20447;-27
2022/11/01 11:28:56;;;;;;;;;;;;;;;14.74;82.99;100876.38;5083048;28;19916;-27
2022/11/01 11:31:24;;;;;;;;;;;;;;;14.78;82.81;100883.41;5083570;28;19927;-27
2022/11/01 11:33:50;;;;;;;;;;;;;;;14.82;83.12;100874.44;5092408;28;20288;-27
2022/11/01 11:36:17;;;;;;;;;;;;;;;14.86;83.40;100877.88;5090678;28;19912;-27
2022/11/01 11:38:44;;;;;;;;;;;;;;;14.89;83.54;100875.16;5074746;28;19923;-27
2022/11/01 11:41:10;;;;;;;;;;;;;;;14.94;84.15;100878.56;5071590;28;19913;-27
2022/11/01 11:43:39;;;;;;;;;;;;;;;14.97;83.92;100872.34;5074988;28;19931;-27
2022/11/01 11:46:13;;;;;;;;;;;;;;;15.00;83.26;100870.47;5076341;28;19920;-27
2022/11/01 11:48:48;;;;;;;;;;;;;;;15.05;83.36;100882.75;5073783;28;19916;-27
2022/11/01 11:51:13;;;;;;;;;;;;;;;15.10;83.55;100879.06;5089661;28;19925;-27
2022/11/01 11:53:39;;;;;;;;;;;;;;;15.14;83.72;100877.22;5090902;28;20382;-27
2022/11/01 11:56:05;;;;;;;;;;;;;;;15.19;84.22;100888.59;5068404;28;19916;-27
2022/11/01 11:58:35;;;;;;;;;;;;;;;15.24;84.84;100886.69;5071068;28;19912;-27
2022/11/01 12:01:00;;;;;;;;;;;;;;;15.29;84.87;100888.34;5071158;28;20304;-27
2022/11/01 12:03:26;;;;;;;;;;;;;;;15.32;85.04;100878.53;5090897;28;20007;-27
2022/11/01 12:05:52;;;;;;;;;;;;;;;15.38;85.21;100869.53;5088907;28;19928;-27
2022/11/01 12:08:37;;;;;;;;;;;;;;;15.46;85.64;100858.69;5089783;28;19963;-27
2022/11/01 12:11:03;;;;;;;;;;;;;;;15.50;85.02;100874.53;5073102;28;20280;-27
2022/11/01 12:13:34;;;;;;;;;;;;;;;15.54;84.17;100872.63;5091701;28;20369;-27
2022/11/01 12:16:13;;;;;;;;;;;;;;;15.61;84.33;100860.94;5091761;28;19919;-28
2022/11/01 12:18:53;;;;;;;;;;;;;;;15.65;84.05;100881.19;5072019;28;20438;-27
2022/11/01 12:21:23;;;;;;;;;;;;;;;15.71;83.81;100877.50;5071371;28;19955;-27
2022/11/01 12:23:49;;;;;;;;;;;;;;;15.76;83.96;100878.28;5071516;28;20018;-27
2022/11/01 12:26:14;;;;;;;;;;;;;;;15.83;83.94;100883.41;5070028;28;19917;-27
2022/11/01 12:28:47;;;;;;;;;;;;;;;15.86;83.05;100883.31;5073807;28;19920;-27
2022/11/01 12:31:22;;;;;;;;;;;;;;;15.92;82.86;100891.13;5075139;28;20316;-27
2022/11/01 12:33:50;;;;;;;;;;;;;;;15.97;82.37;100888.38;5074982;28;20147;-27
2022/11/01 12:36:15;;;;;;;;;;;;;;;16.02;82.24;100879.38;5085567;28;19954;-27
2022/11/01 12:38:42;;;;;;;;;;;;;;;16.09;82.49;100876.50;5094156;28;19951;-27